Polaris — JD2797 — position and weather

sailwx.info

Track history (hours):
 
Tides and Currents Weather Stations Pressure Air Temp Water Temp Dewpoint Dewpoint Depression Visibility Wind Speed Wind Dir Waves Ship Positions

Polaris

Last reported at 2014-Jul-22 09:33 UTC. Time now 2014-Jul-24 19:22 UTC.
Position N 35°25' E 139°42'.

Length 26 m.

MMSI: 431000764.

Date/timePositionNaut miles runAvg speedWind from/ knotsBaromVisibWave heightAir tempDewpointWater temp
2014-Jul-22 09:33N 35°25' E 139°42'1413.6
2014-Jul-22 08:33N 35°12' E 139°46'1212.3
2014-Jul-22 07:33N 35°24' E 139°43'3 2.8
2014-Jul-22 06:33N 35°27' E 139°43'2 0.1
2014-Jul-21 06:11N 35°27' E 139°40'5 8.5
2014-Jul-21 05:33N 35°31' E 139°44'4 3.7
2014-Jul-21 04:34N 35°27' E 139°43'3 2.6
2014-Jul-21 03:33N 35°27' E 139°40'0 0.0
2014-Jul-21 00:33N 35°27' E 139°40'1111.2
2014-Jul-20 23:33N 35°16' E 139°45'4 4.2
2014-Jul-20 22:34N 35°20' E 139°43'5 5.2
2014-Jul-20 21:33N 35°25' E 139°45'5 5.1
2014-Jul-20 20:33N 35°27' E 139°40'0 0.0
2014-Jul-20 19:33N 35°27' E 139°40'0 0.0
2014-Jul-20 18:33N 35°27' E 139°40'0 0.0
2014-Jul-20 17:33N 35°27' E 139°40'0 0.0
2014-Jul-20 16:33N 35°27' E 139°40'0 0.0
2014-Jul-20 15:33N 35°27' E 139°40'1 1.2
2014-Jul-20 14:34N 35°27' E 139°41'10 9.7
2014-Jul-20 13:33N 35°18' E 139°45'8 7.6
2014-Jul-20 12:34N 35°10' E 139°47'1111.3
2014-Jul-20 11:34N 35°21' E 139°42'6 6.0
2014-Jul-20 10:33N 35°27' E 139°40'2 0.3
2014-Jul-20 01:34N 35°27' E 139°43'9 8.8
2014-Jul-20 00:33N 35°18' E 139°45'7 6.8
2014-Jul-19 23:33N 35°11' E 139°47'1010.2
2014-Jul-19 22:33N 35°19' E 139°39'0 0.0
2014-Jul-19 21:33N 35°19' E 139°39'0 0.0
2014-Jul-19 20:33N 35°19' E 139°39'0 0.0
2014-Jul-19 19:33N 35°19' E 139°39'0 0.0
2014-Jul-19 18:33N 35°19' E 139°39'9 8.9
2014-Jul-19 17:33N 35°12' E 139°46'1312.6
2014-Jul-19 16:33N 35°25' E 139°43'2 2.4
2014-Jul-19 15:33N 35°27' E 139°42'3 0.4
2014-Jul-19 07:33N 35°24' E 139°42'1211.6
2014-Jul-19 06:33N 35°13' E 139°46'1212.4
2014-Jul-19 05:34N 35°24' E 139°42'3 3.1
2014-Jul-19 04:33N 35°27' E 139°41'1 1.0
2014-Jul-19 03:34N 35°27' E 139°40'0 0.0
2014-Jul-19 02:34N 35°27' E 139°40'0 0.0
2014-Jul-18 08:33N 35°27' E 139°40'1211.6
2014-Jul-18 07:34N 35°16' E 139°45'4 4.3
2014-Jul-18 06:33N 35°20' E 139°42'1010.3
2014-Jul-18 05:34N 35°28' E 139°49'1110.9
2014-Jul-18 04:33N 35°34' E 140°01'5 4.5
2014-Jul-18 03:33N 35°35' E 140°06'7 6.8
2014-Jul-18 02:34N 35°32' E 139°59'1313.0
2014-Jul-18 01:34N 35°27' E 139°44'4 0.2
2014-Jul-17 06:33N 35°27' E 139°40'5 4.8
2014-Jul-17 05:34N 35°30' E 139°44'6 0.4
2014-Jul-16 11:33N 35°24' E 139°42'1211.6
2014-Jul-16 10:33N 35°13' E 139°46'1110.8
2014-Jul-16 09:33N 35°23' E 139°42'1312.9
2014-Jul-16 08:33N 35°31' E 139°55'9 8.7
2014-Jul-16 07:33N 35°35' E 140°04'2 1.9
2014-Jul-16 06:33N 35°35' E 140°06'1414.3
2014-Jul-16 05:33N 35°28' E 139°51'9 9.1
2014-Jul-16 04:34N 35°27' E 139°40'1 0.1
2014-Jul-15 18:33N 35°27' E 139°41'1413.7
2014-Jul-15 17:33N 35°14' E 139°46'10 9.5
2014-Jul-15 16:33N 35°23' E 139°42'7 7.2
2014-Jul-15 15:33N 35°23' E 139°51'9 9.5
2014-Jul-15 14:33N 35°27' E 139°41'1 1.0
2014-Jul-15 13:33N 35°27' E 139°40'0 0.0
2014-Jul-15 05:33N 35°27' E 139°40'3 2.9
2014-Jul-15 04:34N 35°24' E 139°39'1 0.7
2014-Jul-15 03:33N 35°24' E 139°38'0 0.1
2014-Jul-15 02:34N 35°24' E 139°38'3 2.5
2014-Jul-15 01:33N 35°23' E 139°41'4 3.6
2014-Jul-15 00:34N 35°26' E 139°42'2 1.6
2014-Jul-14 23:34N 35°27' E 139°40'0 0.0
2014-Jul-14 22:33N 35°27' E 139°40'0 0.0
2014-Jul-14 05:34N 35°27' E 139°40'6 5.6
2014-Jul-14 04:33N 35°25' E 139°46'1110.5
2014-Jul-14 03:33N 35°15' E 139°47'2 1.6
2014-Jul-14 02:33N 35°13' E 139°46'1212.4
2014-Jul-14 01:33N 35°25' E 139°42'2 2.3
2014-Jul-14 00:33N 35°27' E 139°40'0 0.0
2014-Jul-12 11:13N 35°27' E 139°40'0 0.0
2014-Jul-12 10:33N 35°27' E 139°40'  
Track history (hours):
 
Tides and Currents Weather Stations Pressure Air Temp Water Temp Dewpoint Dewpoint Depression Visibility Wind Speed Wind Dir Waves Ship Positions

Polaris

Last reported at 2014-Jul-22 09:33 UTC. Time now 2014-Jul-24 19:22 UTC.
Position N 35°25' E 139°42'.

Length 26 m.

MMSI: 431000764.

Date/timePositionNaut miles runAvg speedWind from/ knotsBaromVisibWave heightAir tempDewpointWater temp
2014-Jul-22 09:33N 35°25' E 139°42'1413.6
2014-Jul-22 08:33N 35°12' E 139°46'1212.3
2014-Jul-22 07:33N 35°24' E 139°43'3 2.8
2014-Jul-22 06:33N 35°27' E 139°43'2 0.1
2014-Jul-21 06:11N 35°27' E 139°40'5 8.5
2014-Jul-21 05:33N 35°31' E 139°44'4 3.7
2014-Jul-21 04:34N 35°27' E 139°43'3 2.6
2014-Jul-21 03:33N 35°27' E 139°40'0 0.0
2014-Jul-21 00:33N 35°27' E 139°40'1111.2
2014-Jul-20 23:33N 35°16' E 139°45'4 4.2
2014-Jul-20 22:34N 35°20' E 139°43'5 5.2
2014-Jul-20 21:33N 35°25' E 139°45'5 5.1
2014-Jul-20 20:33N 35°27' E 139°40'0 0.0
2014-Jul-20 19:33N 35°27' E 139°40'0 0.0
2014-Jul-20 18:33N 35°27' E 139°40'0 0.0
2014-Jul-20 17:33N 35°27' E 139°40'0 0.0
2014-Jul-20 16:33N 35°27' E 139°40'0 0.0
2014-Jul-20 15:33N 35°27' E 139°40'1 1.2
2014-Jul-20 14:34N 35°27' E 139°41'10 9.7
2014-Jul-20 13:33N 35°18' E 139°45'8 7.6
2014-Jul-20 12:34N 35°10' E 139°47'1111.3
2014-Jul-20 11:34N 35°21' E 139°42'6 6.0
2014-Jul-20 10:33N 35°27' E 139°40'2 0.3
2014-Jul-20 01:34N 35°27' E 139°43'9 8.8
2014-Jul-20 00:33N 35°18' E 139°45'7 6.8
2014-Jul-19 23:33N 35°11' E 139°47'1010.2
2014-Jul-19 22:33N 35°19' E 139°39'0 0.0
2014-Jul-19 21:33N 35°19' E 139°39'0 0.0
2014-Jul-19 20:33N 35°19' E 139°39'0 0.0
2014-Jul-19 19:33N 35°19' E 139°39'0 0.0
2014-Jul-19 18:33N 35°19' E 139°39'9 8.9
2014-Jul-19 17:33N 35°12' E 139°46'1312.6
2014-Jul-19 16:33N 35°25' E 139°43'2 2.4
2014-Jul-19 15:33N 35°27' E 139°42'3 0.4
2014-Jul-19 07:33N 35°24' E 139°42'1211.6
2014-Jul-19 06:33N 35°13' E 139°46'1212.4
2014-Jul-19 05:34N 35°24' E 139°42'3 3.1
2014-Jul-19 04:33N 35°27' E 139°41'1 1.0
2014-Jul-19 03:34N 35°27' E 139°40'0 0.0
2014-Jul-19 02:34N 35°27' E 139°40'0 0.0
2014-Jul-18 08:33N 35°27' E 139°40'1211.6
2014-Jul-18 07:34N 35°16' E 139°45'4 4.3
2014-Jul-18 06:33N 35°20' E 139°42'1010.3
2014-Jul-18 05:34N 35°28' E 139°49'1110.9
2014-Jul-18 04:33N 35°34' E 140°01'5 4.5
2014-Jul-18 03:33N 35°35' E 140°06'7 6.8
2014-Jul-18 02:34N 35°32' E 139°59'1313.0
2014-Jul-18 01:34N 35°27' E 139°44'4 0.2
2014-Jul-17 06:33N 35°27' E 139°40'5 4.8
2014-Jul-17 05:34N 35°30' E 139°44'6 0.4
2014-Jul-16 11:33N 35°24' E 139°42'1211.6
2014-Jul-16 10:33N 35°13' E 139°46'1110.8
2014-Jul-16 09:33N 35°23' E 139°42'1312.9
2014-Jul-16 08:33N 35°31' E 139°55'9 8.7
2014-Jul-16 07:33N 35°35' E 140°04'2 1.9
2014-Jul-16 06:33N 35°35' E 140°06'1414.3
2014-Jul-16 05:33N 35°28' E 139°51'9 9.1
2014-Jul-16 04:34N 35°27' E 139°40'1 0.1
2014-Jul-15 18:33N 35°27' E 139°41'1413.7
2014-Jul-15 17:33N 35°14' E 139°46'10 9.5
2014-Jul-15 16:33N 35°23' E 139°42'7 7.2
2014-Jul-15 15:33N 35°23' E 139°51'9 9.5
2014-Jul-15 14:33N 35°27' E 139°41'1 1.0
2014-Jul-15 13:33N 35°27' E 139°40'0 0.0
2014-Jul-15 05:33N 35°27' E 139°40'3 2.9
2014-Jul-15 04:34N 35°24' E 139°39'1 0.7
2014-Jul-15 03:33N 35°24' E 139°38'0 0.1
2014-Jul-15 02:34N 35°24' E 139°38'3 2.5
2014-Jul-15 01:33N 35°23' E 139°41'4 3.6
2014-Jul-15 00:34N 35°26' E 139°42'2 1.6
2014-Jul-14 23:34N 35°27' E 139°40'0 0.0
2014-Jul-14 22:33N 35°27' E 139°40'0 0.0
2014-Jul-14 05:34N 35°27' E 139°40'6 5.6
2014-Jul-14 04:33N 35°25' E 139°46'1110.5
2014-Jul-14 03:33N 35°15' E 139°47'2 1.6
2014-Jul-14 02:33N 35°13' E 139°46'1212.4
2014-Jul-14 01:33N 35°25' E 139°42'2 2.3
2014-Jul-14 00:33N 35°27' E 139°40'0 0.0
2014-Jul-12 11:13N 35°27' E 139°40'0 0.0
2014-Jul-12 10:33N 35°27' E 139°40'  

Dump ship's entire track history